sensor_id;sensor_type;location;lat;lon;timestamp;P1;durP1;ratioP1;P2;durP2;ratioP2
67841;SDS011;54642;59.126;37.876;2023-04-08T00:01:19;18.23;;;6.63;;
67841;SDS011;54642;59.126;37.876;2023-04-08T00:03:45;14.68;;;5.22;;
67841;SDS011;54642;59.126;37.876;2023-04-08T00:06:11;14.00;;;5.30;;
67841;SDS011;54642;59.126;37.876;2023-04-08T00:08:37;7.78;;;4.57;;
67841;SDS011;54642;59.126;37.876;2023-04-08T00:11:03;6.60;;;3.28;;
67841;SDS011;54642;59.126;37.876;2023-04-08T00:13:29;9.38;;;4.03;;
67841;SDS011;54642;59.126;37.876;2023-04-08T00:15:56;7.82;;;4.35;;
67841;SDS011;54642;59.126;37.876;2023-04-08T00:18:22;7.97;;;3.53;;
67841;SDS011;54642;59.126;37.876;2023-04-08T00:20:48;6.30;;;3.60;;
67841;SDS011;54642;59.126;37.876;2023-04-08T00:23:14;6.28;;;3.30;;
67841;SDS011;54642;59.126;37.876;2023-04-08T00:25:39;7.93;;;4.50;;
67841;SDS011;54642;59.126;37.876;2023-04-08T00:28:05;10.10;;;3.72;;
67841;SDS011;54642;59.126;37.876;2023-04-08T00:30:31;10.82;;;3.42;;
67841;SDS011;54642;59.126;37.876;2023-04-08T00:32:57;5.97;;;3.53;;
67841;SDS011;54642;59.126;37.876;2023-04-08T00:35:23;7.28;;;3.63;;
67841;SDS011;54642;59.126;37.876;2023-04-08T00:37:50;6.53;;;3.63;;
67841;SDS011;54642;59.126;37.876;2023-04-08T00:40:16;5.53;;;3.10;;
67841;SDS011;54642;59.126;37.876;2023-04-08T00:42:42;5.60;;;2.67;;
67841;SDS011;54642;59.126;37.876;2023-04-08T00:45:08;8.25;;;2.92;;
67841;SDS011;54642;59.126;37.876;2023-04-08T00:47:35;5.75;;;3.38;;
67841;SDS011;54642;59.126;37.876;2023-04-08T00:50:01;6.43;;;2.60;;
67841;SDS011;54642;59.126;37.876;2023-04-08T00:52:28;5.32;;;2.70;;
67841;SDS011;54642;59.126;37.876;2023-04-08T00:54:54;6.78;;;3.03;;
67841;SDS011;54642;59.126;37.876;2023-04-08T00:57:20;8.18;;;2.95;;
67841;SDS011;54642;59.126;37.876;2023-04-08T00:59:46;5.57;;;3.03;;
67841;SDS011;54642;59.126;37.876;2023-04-08T01:05:43;4.40;;;2.63;;
67841;SDS011;54642;59.126;37.876;2023-04-08T01:08:25;9.18;;;2.85;;
67841;SDS011;54642;59.126;37.876;2023-04-08T01:10:58;4.95;;;3.55;;
67841;SDS011;54642;59.126;37.876;2023-04-08T01:13:27;10.55;;;3.25;;
67841;SDS011;54642;59.126;37.876;2023-04-08T01:15:59;11.60;;;4.05;;
67841;SDS011;54642;59.126;37.876;2023-04-08T01:18:25;5.63;;;2.70;;
67841;SDS011;54642;59.126;37.876;2023-04-08T01:20:55;4.57;;;2.88;;
67841;SDS011;54642;59.126;37.876;2023-04-08T01:23:36;4.45;;;2.67;;
67841;SDS011;54642;59.126;37.876;2023-04-08T01:26:09;8.07;;;2.67;;
67841;SDS011;54642;59.126;37.876;2023-04-08T01:28:37;9.10;;;3.85;;
67841;SDS011;54642;59.126;37.876;2023-04-08T01:31:05;9.18;;;3.92;;
67841;SDS011;54642;59.126;37.876;2023-04-08T01:33:32;11.30;;;4.38;;
67841;SDS011;54642;59.126;37.876;2023-04-08T01:36:00;18.42;;;4.63;;
67841;SDS011;54642;59.126;37.876;2023-04-08T01:38:27;15.50;;;5.80;;
67841;SDS011;54642;59.126;37.876;2023-04-08T01:40:56;10.55;;;4.78;;
67841;SDS011;54642;59.126;37.876;2023-04-08T01:43:23;11.23;;;5.30;;
67841;SDS011;54642;59.126;37.876;2023-04-08T01:45:50;15.05;;;6.13;;
67841;SDS011;54642;59.126;37.876;2023-04-08T01:50:48;16.77;;;6.72;;
67841;SDS011;54642;59.126;37.876;2023-04-08T01:53:15;17.48;;;6.05;;
67841;SDS011;54642;59.126;37.876;2023-04-08T01:55:41;14.48;;;6.43;;
67841;SDS011;54642;59.126;37.876;2023-04-08T01:58:13;12.88;;;5.47;;
67841;SDS011;54642;59.126;37.876;2023-04-08T02:00:44;11.13;;;5.65;;
67841;SDS011;54642;59.126;37.876;2023-04-08T02:03:12;14.23;;;5.30;;
67841;SDS011;54642;59.126;37.876;2023-04-08T02:05:44;18.50;;;5.97;;
67841;SDS011;54642;59.126;37.876;2023-04-08T02:08:10;15.40;;;6.22;;
67841;SDS011;54642;59.126;37.876;2023-04-08T02:10:37;11.98;;;5.35;;
67841;SDS011;54642;59.126;37.876;2023-04-08T02:13:03;11.43;;;5.25;;
67841;SDS011;54642;59.126;37.876;2023-04-08T02:15:32;33.83;;;6.53;;
67841;SDS011;54642;59.126;37.876;2023-04-08T02:18:04;11.73;;;5.18;;
67841;SDS011;54642;59.126;37.876;2023-04-08T02:20:37;11.90;;;5.30;;
67841;SDS011;54642;59.126;37.876;2023-04-08T02:23:19;15.63;;;4.90;;
67841;SDS011;54642;59.126;37.876;2023-04-08T02:25:47;17.65;;;5.20;;
67841;SDS011;54642;59.126;37.876;2023-04-08T02:28:14;16.52;;;5.18;;
67841;SDS011;54642;59.126;37.876;2023-04-08T02:30:43;15.77;;;5.28;;
67841;SDS011;54642;59.126;37.876;2023-04-08T02:33:13;22.50;;;6.20;;
67841;SDS011;54642;59.126;37.876;2023-04-08T02:35:42;21.65;;;5.88;;
67841;SDS011;54642;59.126;37.876;2023-04-08T02:38:09;9.93;;;5.20;;
67841;SDS011;54642;59.126;37.876;2023-04-08T02:40:35;14.07;;;6.22;;
67841;SDS011;54642;59.126;37.876;2023-04-08T02:43:02;10.65;;;5.65;;
67841;SDS011;54642;59.126;37.876;2023-04-08T02:45:29;10.75;;;5.03;;
67841;SDS011;54642;59.126;37.876;2023-04-08T02:47:58;10.50;;;6.05;;
67841;SDS011;54642;59.126;37.876;2023-04-08T02:50:25;10.50;;;5.65;;
67841;SDS011;54642;59.126;37.876;2023-04-08T02:52:51;11.90;;;6.03;;
67841;SDS011;54642;59.126;37.876;2023-04-08T02:55:18;16.38;;;6.03;;
67841;SDS011;54642;59.126;37.876;2023-04-08T02:57:45;15.43;;;6.72;;
67841;SDS011;54642;59.126;37.876;2023-04-08T03:00:12;15.82;;;5.45;;
67841;SDS011;54642;59.126;37.876;2023-04-08T03:02:38;12.82;;;4.65;;
67841;SDS011;54642;59.126;37.876;2023-04-08T03:05:04;14.05;;;4.97;;
67841;SDS011;54642;59.126;37.876;2023-04-08T03:07:31;14.38;;;4.95;;
67841;SDS011;54642;59.126;37.876;2023-04-08T03:09:57;32.30;;;5.55;;
67841;SDS011;54642;59.126;37.876;2023-04-08T03:12:24;17.17;;;5.47;;
67841;SDS011;54642;59.126;37.876;2023-04-08T03:14:52;9.15;;;4.95;;
67841;SDS011;54642;59.126;37.876;2023-04-08T03:17:18;16.10;;;6.60;;
67841;SDS011;54642;59.126;37.876;2023-04-08T03:19:44;14.68;;;6.20;;
67841;SDS011;54642;59.126;37.876;2023-04-08T03:22:11;14.98;;;6.13;;
67841;SDS011;54642;59.126;37.876;2023-04-08T03:24:38;19.60;;;5.20;;
67841;SDS011;54642;59.126;37.876;2023-04-08T03:27:04;19.13;;;5.38;;
67841;SDS011;54642;59.126;37.876;2023-04-08T03:29:30;12.85;;;5.50;;
67841;SDS011;54642;59.126;37.876;2023-04-08T03:31:56;12.52;;;5.78;;
67841;SDS011;54642;59.126;37.876;2023-04-08T03:34:23;10.23;;;4.82;;
67841;SDS011;54642;59.126;37.876;2023-04-08T03:36:48;12.95;;;5.35;;
67841;SDS011;54642;59.126;37.876;2023-04-08T03:39:14;11.75;;;6.28;;
67841;SDS011;54642;59.126;37.876;2023-04-08T03:41:41;13.35;;;4.82;;
67841;SDS011;54642;59.126;37.876;2023-04-08T03:44:07;17.02;;;5.90;;
67841;SDS011;54642;59.126;37.876;2023-04-08T03:46:32;18.55;;;5.95;;
67841;SDS011;54642;59.126;37.876;2023-04-08T03:48:58;10.65;;;5.43;;
67841;SDS011;54642;59.126;37.876;2023-04-08T03:51:24;12.30;;;5.65;;
67841;SDS011;54642;59.126;37.876;2023-04-08T03:53:50;18.95;;;6.18;;
67841;SDS011;54642;59.126;37.876;2023-04-08T03:56:16;13.27;;;5.57;;
67841;SDS011;54642;59.126;37.876;2023-04-08T03:58:42;14.98;;;6.25;;
67841;SDS011;54642;59.126;37.876;2023-04-08T04:01:08;26.90;;;5.78;;
67841;SDS011;54642;59.126;37.876;2023-04-08T04:03:34;16.27;;;6.13;;
67841;SDS011;54642;59.126;37.876;2023-04-08T04:06:00;15.63;;;5.68;;
67841;SDS011;54642;59.126;37.876;2023-04-08T04:08:25;15.30;;;5.78;;
67841;SDS011;54642;59.126;37.876;2023-04-08T04:10:51;17.95;;;6.32;;
67841;SDS011;54642;59.126;37.876;2023-04-08T04:13:17;14.40;;;6.53;;
67841;SDS011;54642;59.126;37.876;2023-04-08T04:15:53;13.57;;;5.45;;
67841;SDS011;54642;59.126;37.876;2023-04-08T04:18:28;13.60;;;6.22;;
67841;SDS011;54642;59.126;37.876;2023-04-08T04:20:54;27.73;;;6.22;;
67841;SDS011;54642;59.126;37.876;2023-04-08T04:23:20;12.35;;;5.50;;
67841;SDS011;54642;59.126;37.876;2023-04-08T04:25:48;17.17;;;5.15;;
67841;SDS011;54642;59.126;37.876;2023-04-08T04:28:15;21.20;;;5.43;;
67841;SDS011;54642;59.126;37.876;2023-04-08T04:30:41;24.33;;;7.35;;
67841;SDS011;54642;59.126;37.876;2023-04-08T04:33:07;20.42;;;5.70;;
67841;SDS011;54642;59.126;37.876;2023-04-08T04:35:33;18.85;;;5.70;;
67841;SDS011;54642;59.126;37.876;2023-04-08T04:37:59;25.42;;;5.90;;
67841;SDS011;54642;59.126;37.876;2023-04-08T04:40:25;15.98;;;5.93;;
67841;SDS011;54642;59.126;37.876;2023-04-08T04:42:52;54.72;;;7.22;;
67841;SDS011;54642;59.126;37.876;2023-04-08T04:45:17;15.77;;;5.53;;
67841;SDS011;54642;59.126;37.876;2023-04-08T04:47:43;14.65;;;5.47;;
67841;SDS011;54642;59.126;37.876;2023-04-08T04:50:09;15.75;;;5.45;;
67841;SDS011;54642;59.126;37.876;2023-04-08T04:52:35;14.82;;;5.25;;
67841;SDS011;54642;59.126;37.876;2023-04-08T04:55:01;14.77;;;6.70;;
67841;SDS011;54642;59.126;37.876;2023-04-08T04:57:27;28.98;;;6.43;;
67841;SDS011;54642;59.126;37.876;2023-04-08T04:59:53;27.40;;;6.22;;
67841;SDS011;54642;59.126;37.876;2023-04-08T05:02:19;23.92;;;6.82;;
67841;SDS011;54642;59.126;37.876;2023-04-08T05:04:45;21.02;;;5.50;;
67841;SDS011;54642;59.126;37.876;2023-04-08T05:07:11;9.38;;;4.80;;
67841;SDS011;54642;59.126;37.876;2023-04-08T05:09:37;11.95;;;4.25;;
67841;SDS011;54642;59.126;37.876;2023-04-08T05:12:03;11.13;;;3.60;;
67841;SDS011;54642;59.126;37.876;2023-04-08T05:14:29;8.00;;;3.47;;
67841;SDS011;54642;59.126;37.876;2023-04-08T05:16:55;11.13;;;3.55;;
67841;SDS011;54642;59.126;37.876;2023-04-08T05:19:21;9.35;;;3.60;;
67841;SDS011;54642;59.126;37.876;2023-04-08T05:21:47;13.45;;;4.00;;
67841;SDS011;54642;59.126;37.876;2023-04-08T05:24:13;6.15;;;2.47;;
67841;SDS011;54642;59.126;37.876;2023-04-08T05:26:39;8.05;;;3.15;;
67841;SDS011;54642;59.126;37.876;2023-04-08T05:29:05;9.82;;;4.55;;
67841;SDS011;54642;59.126;37.876;2023-04-08T05:31:31;9.07;;;3.42;;
67841;SDS011;54642;59.126;37.876;2023-04-08T05:33:58;6.90;;;3.10;;
67841;SDS011;54642;59.126;37.876;2023-04-08T05:36:24;11.88;;;4.18;;
67841;SDS011;54642;59.126;37.876;2023-04-08T05:38:50;12.80;;;4.00;;
67841;SDS011;54642;59.126;37.876;2023-04-08T05:41:16;17.10;;;3.60;;
67841;SDS011;54642;59.126;37.876;2023-04-08T05:43:42;10.35;;;3.13;;
67841;SDS011;54642;59.126;37.876;2023-04-08T05:46:08;13.43;;;5.13;;
67841;SDS011;54642;59.126;37.876;2023-04-08T05:48:34;15.63;;;3.50;;
67841;SDS011;54642;59.126;37.876;2023-04-08T05:51:01;15.82;;;3.70;;
67841;SDS011;54642;59.126;37.876;2023-04-08T05:53:27;9.63;;;3.05;;
67841;SDS011;54642;59.126;37.876;2023-04-08T05:55:53;7.82;;;3.15;;
67841;SDS011;54642;59.126;37.876;2023-04-08T05:58:19;11.48;;;4.35;;
67841;SDS011;54642;59.126;37.876;2023-04-08T06:00:45;11.98;;;2.92;;
67841;SDS011;54642;59.126;37.876;2023-04-08T06:03:11;11.40;;;3.17;;
67841;SDS011;54642;59.126;37.876;2023-04-08T06:05:37;15.07;;;3.03;;
67841;SDS011;54642;59.126;37.876;2023-04-08T06:08:03;9.18;;;3.60;;
67841;SDS011;54642;59.126;37.876;2023-04-08T06:10:29;5.60;;;2.45;;
67841;SDS011;54642;59.126;37.876;2023-04-08T06:12:55;8.85;;;2.80;;
67841;SDS011;54642;59.126;37.876;2023-04-08T06:15:21;16.42;;;3.38;;
67841;SDS011;54642;59.126;37.876;2023-04-08T06:17:48;5.95;;;3.03;;
67841;SDS011;54642;59.126;37.876;2023-04-08T06:20:14;6.95;;;2.95;;
67841;SDS011;54642;59.126;37.876;2023-04-08T06:22:40;4.95;;;2.83;;
67841;SDS011;54642;59.126;37.876;2023-04-08T06:25:06;9.02;;;3.05;;
67841;SDS011;54642;59.126;37.876;2023-04-08T06:27:33;11.77;;;3.08;;
67841;SDS011;54642;59.126;37.876;2023-04-08T06:29:59;10.02;;;2.67;;
67841;SDS011;54642;59.126;37.876;2023-04-08T06:32:25;7.40;;;2.72;;
67841;SDS011;54642;59.126;37.876;2023-04-08T06:34:51;7.55;;;2.88;;
67841;SDS011;54642;59.126;37.876;2023-04-08T06:37:17;8.02;;;3.40;;
67841;SDS011;54642;59.126;37.876;2023-04-08T06:39:42;13.45;;;3.38;;
67841;SDS011;54642;59.126;37.876;2023-04-08T06:42:08;5.03;;;2.55;;
67841;SDS011;54642;59.126;37.876;2023-04-08T06:44:45;8.15;;;2.58;;
67841;SDS011;54642;59.126;37.876;2023-04-08T06:47:11;8.20;;;2.65;;
67841;SDS011;54642;59.126;37.876;2023-04-08T06:49:37;15.73;;;2.92;;
67841;SDS011;54642;59.126;37.876;2023-04-08T06:52:02;7.10;;;2.42;;
67841;SDS011;54642;59.126;37.876;2023-04-08T06:54:31;4.45;;;2.42;;
67841;SDS011;54642;59.126;37.876;2023-04-08T06:56:56;6.88;;;3.20;;
67841;SDS011;54642;59.126;37.876;2023-04-08T06:59:22;3.05;;;2.10;;
67841;SDS011;54642;59.126;37.876;2023-04-08T07:01:48;4.22;;;2.50;;
67841;SDS011;54642;59.126;37.876;2023-04-08T07:04:15;9.55;;;3.88;;
67841;SDS011;54642;59.126;37.876;2023-04-08T07:06:41;7.30;;;2.88;;
67841;SDS011;54642;59.126;37.876;2023-04-08T07:09:07;8.65;;;2.30;;
67841;SDS011;54642;59.126;37.876;2023-04-08T07:11:33;9.27;;;2.42;;
67841;SDS011;54642;59.126;37.876;2023-04-08T07:13:59;8.05;;;2.60;;
67841;SDS011;54642;59.126;37.876;2023-04-08T07:16:26;13.95;;;3.05;;
67841;SDS011;54642;59.126;37.876;2023-04-08T07:18:52;6.07;;;2.03;;
67841;SDS011;54642;59.126;37.876;2023-04-08T07:21:18;6.05;;;2.30;;
67841;SDS011;54642;59.126;37.876;2023-04-08T07:23:44;10.65;;;2.70;;
67841;SDS011;54642;59.126;37.876;2023-04-08T07:26:11;7.47;;;2.45;;
67841;SDS011;54642;59.126;37.876;2023-04-08T07:28:37;10.43;;;3.08;;
67841;SDS011;54642;59.126;37.876;2023-04-08T07:31:07;10.70;;;3.30;;
67841;SDS011;54642;59.126;37.876;2023-04-08T07:33:38;7.30;;;2.50;;
67841;SDS011;54642;59.126;37.876;2023-04-08T07:36:08;5.00;;;2.42;;
67841;SDS011;54642;59.126;37.876;2023-04-08T07:38:36;5.25;;;1.63;;
67841;SDS011;54642;59.126;37.876;2023-04-08T07:41:03;4.82;;;2.78;;
67841;SDS011;54642;59.126;37.876;2023-04-08T07:43:30;4.65;;;1.95;;
67841;SDS011;54642;59.126;37.876;2023-04-08T07:45:59;3.20;;;2.72;;
67841;SDS011;54642;59.126;37.876;2023-04-08T07:48:27;5.45;;;3.05;;
67841;SDS011;54642;59.126;37.876;2023-04-08T07:50:55;14.15;;;3.28;;
67841;SDS011;54642;59.126;37.876;2023-04-08T07:53:21;8.02;;;2.00;;
67841;SDS011;54642;59.126;37.876;2023-04-08T07:55:51;6.38;;;2.70;;
67841;SDS011;54642;59.126;37.876;2023-04-08T07:58:17;13.38;;;4.32;;
67841;SDS011;54642;59.126;37.876;2023-04-08T08:00:43;4.55;;;2.72;;
67841;SDS011;54642;59.126;37.876;2023-04-08T08:03:09;5.55;;;3.90;;
67841;SDS011;54642;59.126;37.876;2023-04-08T08:05:35;8.18;;;2.97;;
67841;SDS011;54642;59.126;37.876;2023-04-08T08:08:02;4.93;;;2.78;;
67841;SDS011;54642;59.126;37.876;2023-04-08T08:10:28;7.38;;;2.85;;
67841;SDS011;54642;59.126;37.876;2023-04-08T08:12:55;7.38;;;3.90;;
67841;SDS011;54642;59.126;37.876;2023-04-08T08:15:21;8.73;;;3.53;;
67841;SDS011;54642;59.126;37.876;2023-04-08T08:17:47;7.45;;;3.72;;
67841;SDS011;54642;59.126;37.876;2023-04-08T08:20:13;6.90;;;3.17;;
67841;SDS011;54642;59.126;37.876;2023-04-08T08:22:39;4.53;;;2.15;;
67841;SDS011;54642;59.126;37.876;2023-04-08T08:25:06;5.65;;;2.63;;
67841;SDS011;54642;59.126;37.876;2023-04-08T08:27:34;9.18;;;3.08;;
67841;SDS011;54642;59.126;37.876;2023-04-08T08:30:01;4.78;;;2.03;;
67841;SDS011;54642;59.126;37.876;2023-04-08T08:32:28;10.70;;;2.40;;
67841;SDS011;54642;59.126;37.876;2023-04-08T08:34:54;6.90;;;2.03;;
67841;SDS011;54642;59.126;37.876;2023-04-08T08:37:21;10.98;;;2.40;;
67841;SDS011;54642;59.126;37.876;2023-04-08T08:39:47;3.90;;;2.03;;
67841;SDS011;54642;59.126;37.876;2023-04-08T08:42:32;3.25;;;1.75;;
67841;SDS011;54642;59.126;37.876;2023-04-08T08:45:00;7.38;;;2.00;;
67841;SDS011;54642;59.126;37.876;2023-04-08T08:47:28;6.32;;;2.72;;
67841;SDS011;54642;59.126;37.876;2023-04-08T08:49:55;14.13;;;3.63;;
67841;SDS011;54642;59.126;37.876;2023-04-08T08:52:21;9.27;;;2.42;;
67841;SDS011;54642;59.126;37.876;2023-04-08T08:54:48;12.80;;;2.60;;
67841;SDS011;54642;59.126;37.876;2023-04-08T08:57:22;7.90;;;2.17;;
67841;SDS011;54642;59.126;37.876;2023-04-08T08:59:48;4.28;;;2.33;;
67841;SDS011;54642;59.126;37.876;2023-04-08T09:02:25;4.63;;;1.70;;
67841;SDS011;54642;59.126;37.876;2023-04-08T09:04:55;3.85;;;1.92;;
67841;SDS011;54642;59.126;37.876;2023-04-08T09:07:26;4.55;;;1.65;;
67841;SDS011;54642;59.126;37.876;2023-04-08T09:09:54;6.53;;;2.22;;
67841;SDS011;54642;59.126;37.876;2023-04-08T09:12:21;7.35;;;2.08;;
67841;SDS011;54642;59.126;37.876;2023-04-08T09:14:49;5.05;;;1.70;;
67841;SDS011;54642;59.126;37.876;2023-04-08T09:17:15;5.60;;;1.73;;
67841;SDS011;54642;59.126;37.876;2023-04-08T09:20:03;6.72;;;1.83;;
67841;SDS011;54642;59.126;37.876;2023-04-08T09:22:58;7.30;;;1.50;;
67841;SDS011;54642;59.126;37.876;2023-04-08T09:27:53;6.72;;;1.80;;
67841;SDS011;54642;59.126;37.876;2023-04-08T09:30:20;5.75;;;2.13;;
67841;SDS011;54642;59.126;37.876;2023-04-08T09:32:48;2.33;;;1.20;;
67841;SDS011;54642;59.126;37.876;2023-04-08T09:35:18;7.15;;;1.58;;
67841;SDS011;54642;59.126;37.876;2023-04-08T09:37:45;3.30;;;1.35;;
67841;SDS011;54642;59.126;37.876;2023-04-08T09:40:11;4.53;;;1.50;;
67841;SDS011;54642;59.126;37.876;2023-04-08T09:42:39;4.30;;;1.65;;
67841;SDS011;54642;59.126;37.876;2023-04-08T09:45:08;3.70;;;1.52;;
67841;SDS011;54642;59.126;37.876;2023-04-08T09:47:41;3.35;;;1.65;;
67841;SDS011;54642;59.126;37.876;2023-04-08T09:50:30;5.35;;;1.75;;
67841;SDS011;54642;59.126;37.876;2023-04-08T09:52:59;2.40;;;1.20;;
67841;SDS011;54642;59.126;37.876;2023-04-08T09:55:32;3.08;;;1.55;;
67841;SDS011;54642;59.126;37.876;2023-04-08T09:58:03;15.00;;;2.28;;
67841;SDS011;54642;59.126;37.876;2023-04-08T10:00:52;7.82;;;1.75;;
67841;SDS011;54642;59.126;37.876;2023-04-08T10:03:28;3.28;;;1.50;;
67841;SDS011;54642;59.126;37.876;2023-04-08T10:06:02;5.03;;;2.45;;
67841;SDS011;54642;59.126;37.876;2023-04-08T10:08:29;9.50;;;2.42;;
67841;SDS011;54642;59.126;37.876;2023-04-08T10:10:57;5.50;;;2.13;;
67841;SDS011;54642;59.126;37.876;2023-04-08T10:13:23;6.90;;;1.90;;
67841;SDS011;54642;59.126;37.876;2023-04-08T10:16:37;5.10;;;1.70;;
67841;SDS011;54642;59.126;37.876;2023-04-08T10:18:46;4.35;;;2.45;;
67841;SDS011;54642;59.126;37.876;2023-04-08T10:24:10;7.47;;;1.67;;
67841;SDS011;54642;59.126;37.876;2023-04-08T10:26:37;5.30;;;1.98;;
67841;SDS011;54642;59.126;37.876;2023-04-08T10:34:15;4.05;;;1.90;;
67841;SDS011;54642;59.126;37.876;2023-04-08T10:36:52;5.30;;;1.67;;
67841;SDS011;54642;59.126;37.876;2023-04-08T10:39:20;8.75;;;2.65;;
67841;SDS011;54642;59.126;37.876;2023-04-08T10:41:47;4.57;;;2.80;;
67841;SDS011;54642;59.126;37.876;2023-04-08T10:44:18;4.53;;;2.40;;
67841;SDS011;54642;59.126;37.876;2023-04-08T10:46:47;4.30;;;2.95;;
67841;SDS011;54642;59.126;37.876;2023-04-08T10:49:15;4.22;;;1.88;;
67841;SDS011;54642;59.126;37.876;2023-04-08T10:51:44;7.10;;;2.40;;
67841;SDS011;54642;59.126;37.876;2023-04-08T10:54:15;3.42;;;2.05;;
67841;SDS011;54642;59.126;37.876;2023-04-08T10:56:46;8.73;;;2.55;;
67841;SDS011;54642;59.126;37.876;2023-04-08T11:01:52;4.65;;;2.58;;
67841;SDS011;54642;59.126;37.876;2023-04-08T11:04:18;5.28;;;2.45;;
67841;SDS011;54642;59.126;37.876;2023-04-08T11:06:45;7.47;;;2.65;;
67841;SDS011;54642;59.126;37.876;2023-04-08T11:09:12;4.90;;;2.20;;
67841;SDS011;54642;59.126;37.876;2023-04-08T11:11:42;4.15;;;1.60;;
67841;SDS011;54642;59.126;37.876;2023-04-08T11:14:09;8.82;;;3.28;;
67841;SDS011;54642;59.126;37.876;2023-04-08T11:16:36;6.25;;;2.40;;
67841;SDS011;54642;59.126;37.876;2023-04-08T11:19:04;14.52;;;2.17;;
67841;SDS011;54642;59.126;37.876;2023-04-08T11:21:31;4.88;;;1.88;;
67841;SDS011;54642;59.126;37.876;2023-04-08T11:23:59;5.65;;;2.05;;
67841;SDS011;54642;59.126;37.876;2023-04-08T11:26:25;11.00;;;2.17;;
67841;SDS011;54642;59.126;37.876;2023-04-08T11:28:52;5.57;;;3.05;;
67841;SDS011;54642;59.126;37.876;2023-04-08T11:31:20;5.05;;;1.63;;
67841;SDS011;54642;59.126;37.876;2023-04-08T11:33:47;4.97;;;1.67;;
67841;SDS011;54642;59.126;37.876;2023-04-08T11:36:15;4.50;;;2.25;;
67841;SDS011;54642;59.126;37.876;2023-04-08T11:38:43;6.55;;;2.40;;
67841;SDS011;54642;59.126;37.876;2023-04-08T11:41:12;7.32;;;2.45;;
67841;SDS011;54642;59.126;37.876;2023-04-08T11:43:38;13.38;;;4.10;;
67841;SDS011;54642;59.126;37.876;2023-04-08T11:46:07;5.72;;;2.20;;
67841;SDS011;54642;59.126;37.876;2023-04-08T11:48:37;4.90;;;1.55;;
67841;SDS011;54642;59.126;37.876;2023-04-08T11:51:04;6.63;;;1.98;;
67841;SDS011;54642;59.126;37.876;2023-04-08T11:53:34;7.07;;;1.98;;
67841;SDS011;54642;59.126;37.876;2023-04-08T11:58:43;4.32;;;1.65;;
67841;SDS011;54642;59.126;37.876;2023-04-08T12:01:09;5.38;;;2.08;;
67841;SDS011;54642;59.126;37.876;2023-04-08T12:03:35;7.82;;;3.42;;
67841;SDS011;54642;59.126;37.876;2023-04-08T12:06:01;5.85;;;2.08;;
67841;SDS011;54642;59.126;37.876;2023-04-08T12:08:28;7.93;;;1.88;;
67841;SDS011;54642;59.126;37.876;2023-04-08T12:10:54;9.18;;;2.33;;
67841;SDS011;54642;59.126;37.876;2023-04-08T12:13:21;5.35;;;2.55;;
67841;SDS011;54642;59.126;37.876;2023-04-08T12:15:47;5.22;;;1.73;;
67841;SDS011;54642;59.126;37.876;2023-04-08T12:18:13;5.97;;;3.15;;
67841;SDS011;54642;59.126;37.876;2023-04-08T12:20:40;3.30;;;2.30;;
67841;SDS011;54642;59.126;37.876;2023-04-08T12:23:06;6.50;;;2.20;;
67841;SDS011;54642;59.126;37.876;2023-04-08T12:25:32;6.00;;;2.33;;
67841;SDS011;54642;59.126;37.876;2023-04-08T12:27:58;4.78;;;2.17;;
67841;SDS011;54642;59.126;37.876;2023-04-08T12:30:24;14.77;;;2.10;;
67841;SDS011;54642;59.126;37.876;2023-04-08T12:32:50;6.75;;;1.73;;
67841;SDS011;54642;59.126;37.876;2023-04-08T12:35:17;6.50;;;2.85;;
67841;SDS011;54642;59.126;37.876;2023-04-08T12:37:43;4.70;;;2.17;;
67841;SDS011;54642;59.126;37.876;2023-04-08T12:40:10;6.38;;;2.15;;
67841;SDS011;54642;59.126;37.876;2023-04-08T12:42:36;3.70;;;2.78;;
67841;SDS011;54642;59.126;37.876;2023-04-08T12:45:02;4.82;;;1.75;;
67841;SDS011;54642;59.126;37.876;2023-04-08T12:47:28;4.65;;;1.88;;
67841;SDS011;54642;59.126;37.876;2023-04-08T12:49:54;4.15;;;2.25;;
67841;SDS011;54642;59.126;37.876;2023-04-08T12:52:20;7.63;;;2.13;;
67841;SDS011;54642;59.126;37.876;2023-04-08T12:54:47;6.75;;;2.13;;
67841;SDS011;54642;59.126;37.876;2023-04-08T12:57:13;10.98;;;2.17;;
67841;SDS011;54642;59.126;37.876;2023-04-08T12:59:39;9.18;;;2.72;;
67841;SDS011;54642;59.126;37.876;2023-04-08T13:02:05;8.15;;;3.25;;
67841;SDS011;54642;59.126;37.876;2023-04-08T13:04:32;7.07;;;2.78;;
67841;SDS011;54642;59.126;37.876;2023-04-08T13:06:57;4.10;;;2.80;;
67841;SDS011;54642;59.126;37.876;2023-04-08T13:09:25;13.57;;;4.03;;
67841;SDS011;54642;59.126;37.876;2023-04-08T13:11:51;8.70;;;3.47;;
67841;SDS011;54642;59.126;37.876;2023-04-08T13:14:17;5.07;;;1.85;;
67841;SDS011;54642;59.126;37.876;2023-04-08T13:16:43;5.47;;;1.90;;
67841;SDS011;54642;59.126;37.876;2023-04-08T13:19:09;6.05;;;2.45;;
67841;SDS011;54642;59.126;37.876;2023-04-08T13:21:34;10.55;;;3.05;;
67841;SDS011;54642;59.126;37.876;2023-04-08T13:24:00;8.10;;;2.20;;
67841;SDS011;54642;59.126;37.876;2023-04-08T13:26:26;12.65;;;2.70;;
67841;SDS011;54642;59.126;37.876;2023-04-08T13:28:53;4.65;;;2.60;;
67841;SDS011;54642;59.126;37.876;2023-04-08T13:31:19;3.70;;;2.97;;
67841;SDS011;54642;59.126;37.876;2023-04-08T13:33:45;5.88;;;2.42;;
67841;SDS011;54642;59.126;37.876;2023-04-08T13:36:11;9.73;;;2.78;;
67841;SDS011;54642;59.126;37.876;2023-04-08T13:38:37;4.60;;;1.85;;
67841;SDS011;54642;59.126;37.876;2023-04-08T13:41:03;4.85;;;2.30;;
67841;SDS011;54642;59.126;37.876;2023-04-08T13:43:29;7.13;;;3.70;;
67841;SDS011;54642;59.126;37.876;2023-04-08T13:45:55;6.05;;;2.22;;
67841;SDS011;54642;59.126;37.876;2023-04-08T13:48:22;4.65;;;2.58;;
67841;SDS011;54642;59.126;37.876;2023-04-08T13:50:48;7.70;;;2.33;;
67841;SDS011;54642;59.126;37.876;2023-04-08T13:53:13;4.85;;;1.95;;
67841;SDS011;54642;59.126;37.876;2023-04-08T13:55:40;7.80;;;3.10;;
67841;SDS011;54642;59.126;37.876;2023-04-08T13:58:06;6.43;;;2.63;;
67841;SDS011;54642;59.126;37.876;2023-04-08T14:00:32;6.57;;;2.95;;
67841;SDS011;54642;59.126;37.876;2023-04-08T14:02:58;5.45;;;3.10;;
67841;SDS011;54642;59.126;37.876;2023-04-08T14:05:24;5.97;;;2.30;;
67841;SDS011;54642;59.126;37.876;2023-04-08T14:07:50;8.45;;;2.80;;
67841;SDS011;54642;59.126;37.876;2023-04-08T14:10:16;3.30;;;2.13;;
67841;SDS011;54642;59.126;37.876;2023-04-08T14:12:42;4.40;;;2.80;;
67841;SDS011;54642;59.126;37.876;2023-04-08T14:15:08;6.05;;;2.92;;
67841;SDS011;54642;59.126;37.876;2023-04-08T14:17:34;7.35;;;2.13;;
67841;SDS011;54642;59.126;37.876;2023-04-08T14:20:00;7.43;;;2.60;;
67841;SDS011;54642;59.126;37.876;2023-04-08T14:22:26;7.15;;;2.33;;
67841;SDS011;54642;59.126;37.876;2023-04-08T14:24:52;5.40;;;3.25;;
67841;SDS011;54642;59.126;37.876;2023-04-08T14:27:18;6.15;;;2.03;;
67841;SDS011;54642;59.126;37.876;2023-04-08T14:29:44;3.63;;;1.85;;
67841;SDS011;54642;59.126;37.876;2023-04-08T14:32:10;4.45;;;1.80;;
67841;SDS011;54642;59.126;37.876;2023-04-08T14:34:37;8.32;;;2.67;;
67841;SDS011;54642;59.126;37.876;2023-04-08T14:37:03;5.13;;;2.17;;
67841;SDS011;54642;59.126;37.876;2023-04-08T14:39:29;8.45;;;1.90;;
67841;SDS011;54642;59.126;37.876;2023-04-08T14:41:55;6.53;;;1.90;;
67841;SDS011;54642;59.126;37.876;2023-04-08T14:44:22;7.43;;;2.03;;
67841;SDS011;54642;59.126;37.876;2023-04-08T14:46:48;12.27;;;2.30;;
67841;SDS011;54642;59.126;37.876;2023-04-08T14:49:14;13.57;;;2.35;;
67841;SDS011;54642;59.126;37.876;2023-04-08T14:51:40;4.75;;;2.30;;
67841;SDS011;54642;59.126;37.876;2023-04-08T14:54:06;6.25;;;2.35;;